createdAt,value
2019-04-27T00:00:14.162Z,97409.09
2019-04-27T00:01:19.692Z,97407.70
2019-04-27T00:02:28.096Z,97404.34
2019-04-27T00:03:41.496Z,97404.87
2019-04-27T00:04:48.634Z,97409.08
2019-04-27T00:06:08.489Z,97404.83
2019-04-27T00:07:28.513Z,97400.94
2019-04-27T00:08:38.744Z,97398.23
2019-04-27T00:09:50.182Z,97396.58
2019-04-27T00:10:50.805Z,97391.11
2019-04-27T00:11:59.018Z,97390.67
2019-04-27T00:13:05.693Z,97392.92
2019-04-27T00:14:10.326Z,97390.38
2019-04-27T00:15:16.068Z,97395.63
2019-04-27T00:16:21.384Z,97391.78
2019-04-27T00:17:49.006Z,97392.03
2019-04-27T00:18:49.816Z,97396.31
2019-04-27T00:19:56.035Z,97393.61
2019-04-27T00:21:04.086Z,97383.68
2019-04-27T00:22:12.959Z,97387.97
2019-04-27T00:23:19.473Z,97385.83
2019-04-27T00:24:23.549Z,97389.11
2019-04-27T00:25:27.422Z,97390.28
2019-04-27T00:26:31.100Z,97384.73
2019-04-27T00:27:34.773Z,97391.52
2019-04-27T00:28:38.475Z,97387.88
2019-04-27T00:29:43.186Z,97388.06
2019-04-27T00:30:47.011Z,97384.21
2019-04-27T00:31:50.688Z,97379.67
2019-04-27T00:32:54.324Z,97386.19
2019-04-27T00:33:58.363Z,97383.05
2019-04-27T00:35:03.744Z,97389.13
2019-04-27T00:36:09.153Z,97383.91
2019-04-27T00:37:33.598Z,97386.05
2019-04-27T00:38:39.401Z,97385.88
2019-04-27T00:39:47.243Z,97382.23
2019-04-27T00:40:58.148Z,97377.73
2019-04-27T00:42:03.283Z,97383.91
2019-04-27T00:43:07.071Z,97377.70
2019-04-27T00:44:10.727Z,97387.55
2019-04-27T00:45:15.153Z,97385.77
2019-04-27T00:46:18.797Z,97384.41
2019-04-27T00:47:23.877Z,97376.70
2019-04-27T00:48:27.700Z,97385.01
2019-04-27T00:49:32.907Z,97381.44
2019-04-27T00:50:36.568Z,97383.36
2019-04-27T00:51:40.225Z,97380.86
2019-04-27T00:52:43.849Z,97383.36
2019-04-27T00:53:47.510Z,97387.25
2019-04-27T00:54:51.169Z,97378.68
2019-04-27T00:56:03.581Z,97378.25
2019-04-27T00:57:09.297Z,97373.75
2019-04-27T00:58:14.565Z,97377.91
2019-04-27T00:59:36.261Z,97382.28
2019-04-27T01:00:50.538Z,97381.11
2019-04-27T01:02:13.923Z,97375.20
2019-04-27T01:03:19.224Z,97376.73
2019-04-27T01:04:24.523Z,97376.69
2019-04-27T01:05:29.772Z,97378.05
2019-04-27T01:06:33.664Z,97375.69
2019-04-27T01:07:37.438Z,97379.14
2019-04-27T01:08:42.766Z,97380.27
2019-04-27T01:09:47.233Z,97376.36
2019-04-27T01:10:50.915Z,97378.56
2019-04-27T01:11:54.542Z,97380.56
2019-04-27T01:12:58.249Z,97380.05
2019-04-27T01:14:03.845Z,97383.38
2019-04-27T01:15:08.115Z,97377.03
2019-04-27T01:16:13.209Z,97374.94
2019-04-27T01:17:18.831Z,97375.59
2019-04-27T01:18:22.593Z,97373.09
2019-04-27T01:19:26.234Z,97374.45
2019-04-27T01:20:30.205Z,97369.73
2019-04-27T01:21:34.034Z,97377.25
2019-04-27T01:22:39.124Z,97373.70
2019-04-27T01:23:43.099Z,97370.30
2019-04-27T01:24:46.725Z,97373.14
2019-04-27T01:25:54.519Z,97370.64
2019-04-27T01:27:15.719Z,97374.01
2019-04-27T01:28:23.960Z,97367.80
2019-04-27T01:29:29.305Z,97365.66
2019-04-27T01:30:34.598Z,97365.80
2019-04-27T01:31:39.660Z,97360.54
2019-04-27T01:32:43.513Z,97359.34
2019-04-27T01:33:48.796Z,97357.23
2019-04-27T01:34:52.578Z,97359.95
2019-04-27T01:35:56.226Z,97363.73
2019-04-27T01:36:59.860Z,97358.16
2019-04-27T01:38:03.555Z,97357.45
2019-04-27T01:39:10.148Z,97361.46
2019-04-27T01:40:13.774Z,97358.38
2019-04-27T01:41:19.216Z,97358.59
2019-04-27T01:42:22.949Z,97359.43
2019-04-27T01:43:26.631Z,97360.16
2019-04-27T01:44:30.286Z,97356.09
2019-04-27T01:45:33.941Z,97355.31
2019-04-27T01:46:37.569Z,97351.47
2019-04-27T01:47:41.210Z,97356.94
2019-04-27T01:48:44.908Z,97355.36
2019-04-27T01:49:49.510Z,97357.50
2019-04-27T01:50:53.285Z,97358.08
2019-04-27T01:51:56.933Z,97358.86
2019-04-27T01:53:00.568Z,97358.08
2019-04-27T01:54:06.041Z,97359.21
2019-04-27T01:55:09.801Z,97356.31
2019-04-27T01:56:13.515Z,97355.61
2019-04-27T01:57:17.182Z,97354.61
2019-04-27T01:58:20.825Z,97361.81
2019-04-27T01:59:24.494Z,97356.97
2019-04-27T02:00:32.443Z,97359.51
2019-04-27T02:01:46.602Z,97360.45
2019-04-27T02:02:52.005Z,97356.40
2019-04-27T02:04:00.196Z,97360.02
2019-04-27T02:05:09.668Z,97357.09
2019-04-27T02:06:13.339Z,97363.68
2019-04-27T02:07:16.967Z,97356.25
2019-04-27T02:08:20.619Z,97355.91
2019-04-27T02:09:24.342Z,97353.98
2019-04-27T02:10:29.276Z,97353.33
2019-04-27T02:11:33.080Z,97352.48
2019-04-27T02:12:36.734Z,97348.42
2019-04-27T02:13:40.372Z,97347.07
2019-04-27T02:14:44.030Z,97348.42
2019-04-27T02:15:48.710Z,97341.09
2019-04-27T02:16:52.869Z,97341.44
2019-04-27T02:17:56.534Z,97345.31
2019-04-27T02:19:00.188Z,97341.95
2019-04-27T02:20:05.664Z,97344.81
2019-04-27T02:21:09.446Z,97342.56
2019-04-27T02:22:13.076Z,97347.00
2019-04-27T02:23:16.734Z,97346.44
2019-04-27T02:24:20.393Z,97341.15
2019-04-27T02:25:24.135Z,97338.44
2019-04-27T02:26:29.488Z,97339.58
2019-04-27T02:27:34.387Z,97335.80
2019-04-27T02:28:56.089Z,97334.59
2019-04-27T02:30:04.096Z,97335.33
2019-04-27T02:31:24.384Z,97340.30
2019-04-27T02:32:32.224Z,97338.33
2019-04-27T02:33:43.520Z,97330.28
2019-04-27T02:34:51.655Z,97337.55
2019-04-27T02:35:55.299Z,97334.19
2019-04-27T02:36:59.542Z,97332.83
2019-04-27T02:38:04.347Z,97334.19
2019-04-27T02:39:09.532Z,97329.06
2019-04-27T02:40:49.614Z,97329.78
2019-04-27T02:41:53.497Z,97330.92
2019-04-27T02:42:57.227Z,97329.56
2019-04-27T02:44:02.550Z,97329.34
2019-04-27T02:45:06.456Z,97326.08
2019-04-27T02:46:10.202Z,97329.78
2019-04-27T02:47:13.923Z,97328.21
2019-04-27T02:48:19.686Z,97329.56
2019-04-27T02:49:22.982Z,97325.51
2019-04-27T02:50:26.624Z,97321.45
2019-04-27T02:51:43.717Z,97322.36
2019-04-27T02:52:50.106Z,97323.94
2019-04-27T02:53:54.366Z,97320.16
2019-04-27T02:54:59.374Z,97314.31
2019-04-27T02:56:03.176Z,97313.34
2019-04-27T02:57:09.621Z,97315.25
2019-04-27T02:58:13.070Z,97309.63
2019-04-27T02:59:19.693Z,97308.05
2019-04-27T03:00:22.416Z,97306.13
2019-04-27T03:01:30.164Z,97307.36
2019-04-27T03:02:34.710Z,97309.84
2019-04-27T03:03:38.367Z,97310.63
2019-04-27T03:04:42.004Z,97308.48
2019-04-27T03:05:45.691Z,97309.84
2019-04-27T03:06:50.058Z,97307.14
2019-04-27T03:07:53.957Z,97305.56
2019-04-27T03:09:00.001Z,97309.78
2019-04-27T03:10:03.036Z,97313.05
2019-04-27T03:11:06.743Z,97308.21
2019-04-27T03:12:10.512Z,97316.23
2019-04-27T03:13:15.736Z,97315.48
2019-04-27T03:14:32.648Z,97309.84
2019-04-27T03:15:30.352Z,97306.36
2019-04-27T03:16:39.446Z,97309.28
2019-04-27T03:18:01.274Z,97308.84
2019-04-27T03:19:24.905Z,97308.91
2019-04-27T03:20:46.463Z,97311.20
2019-04-27T03:21:59.359Z,97306.48
2019-04-27T03:23:04.544Z,97308.41
2019-04-27T03:24:09.920Z,97307.20
2019-04-27T03:25:16.959Z,97304.28
2019-04-27T03:26:22.266Z,97312.17
2019-04-27T03:27:30.128Z,97299.16
2019-04-27T03:28:33.422Z,97311.88
2019-04-27T03:29:37.173Z,97306.97
2019-04-27T03:30:43.546Z,97306.47
2019-04-27T03:31:53.492Z,97302.41
2019-04-27T03:32:56.631Z,97295.87
2019-04-27T03:34:04.313Z,97304.40
2019-04-27T03:35:04.438Z,97297.73
2019-04-27T03:36:12.401Z,97300.43
2019-04-27T03:37:13.456Z,97298.48
2019-04-27T03:38:19.565Z,97297.00
2019-04-27T03:39:22.622Z,97298.14
2019-04-27T03:40:26.261Z,97297.00
2019-04-27T03:41:29.978Z,97296.09
2019-04-27T03:42:37.368Z,97296.28
2019-04-27T03:43:40.389Z,97300.34
2019-04-27T03:44:44.134Z,97301.28
2019-04-27T03:45:49.726Z,97294.74
2019-04-27T03:46:53.170Z,97300.56
2019-04-27T03:47:56.811Z,97294.02
2019-04-27T03:49:00.728Z,97294.24
2019-04-27T03:50:06.854Z,97298.93
2019-04-27T03:51:12.186Z,97296.00
2019-04-27T03:52:20.070Z,97297.92
2019-04-27T03:53:25.865Z,97296.23
2019-04-27T03:54:33.641Z,97294.31
2019-04-27T03:55:50.122Z,97305.76
2019-04-27T03:56:54.806Z,97304.28
2019-04-27T03:58:11.831Z,97300.06
2019-04-27T03:59:19.597Z,97301.64
2019-04-27T04:00:29.996Z,97304.13
2019-04-27T04:01:33.325Z,97308.97
2019-04-27T04:02:37.092Z,97310.88
2019-04-27T04:03:40.827Z,97317.02
2019-04-27T04:04:44.782Z,97313.24
2019-04-27T04:05:49.439Z,97310.88
2019-04-27T04:06:53.795Z,97313.02
2019-04-27T04:07:57.492Z,97313.24
2019-04-27T04:09:01.359Z,97317.23
2019-04-27T04:10:07.153Z,97320.51
2019-04-27T04:11:15.387Z,97308.34
2019-04-27T04:12:36.916Z,97313.91
2019-04-27T04:13:42.219Z,97319.09
2019-04-27T04:14:45.899Z,97316.95
2019-04-27T04:16:10.533Z,97312.33
2019-04-27T04:17:14.679Z,97310.25
2019-04-27T04:18:19.610Z,97310.70
2019-04-27T04:19:23.711Z,97307.05
2019-04-27T04:20:27.380Z,97312.90
2019-04-27T04:21:31.017Z,97310.25
2019-04-27T04:22:40.378Z,97313.97
2019-04-27T04:23:43.737Z,97314.19
2019-04-27T04:24:47.431Z,97314.03
2019-04-27T04:25:51.787Z,97315.95
2019-04-27T04:26:55.445Z,97314.81
2019-04-27T04:28:00.609Z,97315.66
2019-04-27T04:29:04.572Z,97318.81
2019-04-27T04:30:11.805Z,97320.03
2019-04-27T04:31:14.068Z,97314.02
2019-04-27T04:32:19.240Z,97309.97
2019-04-27T04:33:23.388Z,97321.67
2019-04-27T04:34:29.698Z,97313.73
2019-04-27T04:35:33.311Z,97315.88
2019-04-27T04:36:37.185Z,97314.34
2019-04-27T04:37:40.824Z,97312.38
2019-04-27T04:38:44.464Z,97310.47
2019-04-27T04:39:53.104Z,97315.53
2019-04-27T04:40:55.335Z,97319.02
2019-04-27T04:42:10.338Z,97309.42
2019-04-27T04:43:15.763Z,97311.75
2019-04-27T04:44:21.046Z,97308.47
2019-04-27T04:45:30.526Z,97309.13
2019-04-27T04:46:39.942Z,97308.75
2019-04-27T04:47:45.289Z,97308.53
2019-04-27T04:48:50.315Z,97311.40
2019-04-27T04:50:07.358Z,97309.83
2019-04-27T04:51:00.056Z,97318.38
2019-04-27T04:52:03.987Z,97315.02
2019-04-27T04:53:11.781Z,97317.10
2019-04-27T04:54:13.032Z,97317.10
2019-04-27T04:55:16.672Z,97312.83
2019-04-27T04:56:20.309Z,97315.09
2019-04-27T04:57:24.001Z,97316.45
2019-04-27T04:58:29.417Z,97315.81
2019-04-27T04:59:33.172Z,97316.73
2019-04-27T05:00:37.031Z,97320.16
2019-04-27T05:01:40.683Z,97316.83
2019-04-27T05:02:44.752Z,97311.61
2019-04-27T05:03:48.916Z,97313.91
2019-04-27T05:04:52.659Z,97309.41
2019-04-27T05:05:56.361Z,97318.75
2019-04-27T05:07:00.019Z,97318.03
2019-04-27T05:08:03.691Z,97317.23
2019-04-27T05:09:09.162Z,97316.11
2019-04-27T05:10:12.956Z,97312.05
2019-04-27T05:11:16.590Z,97312.90
2019-04-27T05:12:20.347Z,97316.95
2019-04-27T05:13:24.189Z,97315.54
2019-04-27T05:14:28.870Z,97309.63
2019-04-27T05:15:32.720Z,97311.61
2019-04-27T05:16:36.358Z,97311.26
2019-04-27T05:17:40.035Z,97308.21
2019-04-27T05:18:43.688Z,97306.57
2019-04-27T05:19:49.124Z,97303.02
2019-04-27T05:20:54.463Z,97304.70
2019-04-27T05:21:59.284Z,97303.28
2019-04-27T05:23:02.970Z,97302.77
2019-04-27T05:24:06.656Z,97302.70
2019-04-27T05:25:10.984Z,97298.47
2019-04-27T05:26:15.102Z,97296.84
2019-04-27T05:27:19.196Z,97294.14
2019-04-27T05:28:22.906Z,97297.91
2019-04-27T05:29:26.566Z,97296.14
2019-04-27T05:30:30.232Z,97301.48
2019-04-27T05:31:33.869Z,97298.13
2019-04-27T05:32:39.308Z,97293.22
2019-04-27T05:33:42.964Z,97296.77
2019-04-27T05:34:46.640Z,97299.84
2019-04-27T05:35:50.369Z,97297.27
2019-04-27T05:36:54.032Z,97293.86
2019-04-27T05:38:02.406Z,97297.80
2019-04-27T05:39:04.337Z,97292.31
2019-04-27T05:40:09.151Z,97288.89
2019-04-27T05:41:12.845Z,97291.09
2019-04-27T05:42:18.981Z,97288.08
2019-04-27T05:43:25.585Z,97288.17
2019-04-27T05:44:45.671Z,97288.60
2019-04-27T05:46:12.406Z,97286.94
2019-04-27T05:47:19.064Z,97279.45
2019-04-27T05:48:28.674Z,97283.83
2019-04-27T05:49:36.425Z,97286.19
2019-04-27T05:50:45.646Z,97275.82
2019-04-27T05:51:47.926Z,97279.77
2019-04-27T05:52:50.989Z,97280.56
2019-04-27T05:53:54.611Z,97282.27
2019-04-27T05:54:59.118Z,97280.46
2019-04-27T05:56:02.940Z,97280.97
2019-04-27T05:57:06.635Z,97282.08
2019-04-27T05:58:10.317Z,97284.79
2019-04-27T05:59:14.787Z,97285.83
2019-04-27T06:00:20.656Z,97278.94
2019-04-27T06:01:24.326Z,97277.05
2019-04-27T06:02:30.261Z,97276.11
2019-04-27T06:03:34.105Z,97277.47
2019-04-27T06:04:39.067Z,97279.43
2019-04-27T06:05:43.128Z,97276.03
2019-04-27T06:06:46.779Z,97275.95
2019-04-27T06:07:50.490Z,97270.80
2019-04-27T06:08:54.143Z,97266.67
2019-04-27T06:09:59.543Z,97269.08
2019-04-27T06:11:03.152Z,97273.30
2019-04-27T06:12:06.834Z,97274.45
2019-04-27T06:13:10.637Z,97271.03
2019-04-27T06:14:14.352Z,97275.66
2019-04-27T06:15:19.739Z,97267.22
2019-04-27T06:16:23.510Z,97262.69
2019-04-27T06:17:27.182Z,97268.00
2019-04-27T06:18:31.264Z,97265.20
2019-04-27T06:19:34.841Z,97260.63
2019-04-27T06:20:50.368Z,97263.59
2019-04-27T06:21:44.509Z,97264.81
2019-04-27T06:22:48.888Z,97259.31
2019-04-27T06:23:52.935Z,97264.09
2019-04-27T06:24:56.572Z,97265.34
2019-04-27T06:26:01.861Z,97263.45
2019-04-27T06:27:05.685Z,97257.59
2019-04-27T06:28:09.332Z,97255.31
2019-04-27T06:29:13.019Z,97253.26
2019-04-27T06:30:16.654Z,97251.91
2019-04-27T06:31:20.297Z,97250.77
2019-04-27T06:32:23.958Z,97251.16
2019-04-27T06:33:33.827Z,97251.55
2019-04-27T06:34:32.988Z,97248.83
2019-04-27T06:35:36.651Z,97250.77
2019-04-27T06:36:40.727Z,97249.22
2019-04-27T06:37:44.454Z,97251.55
2019-04-27T06:38:48.579Z,97257.39
2019-04-27T06:39:52.585Z,97251.96
2019-04-27T06:40:56.242Z,97249.63
2019-04-27T06:42:01.279Z,97255.26
2019-04-27T06:43:05.313Z,97245.72
2019-04-27T06:44:10.989Z,97243.38
2019-04-27T06:45:14.467Z,97237.52
2019-04-27T06:46:19.882Z,97239.48
2019-04-27T06:47:23.741Z,97242.20
2019-04-27T06:48:29.504Z,97239.30
2019-04-27T06:49:36.034Z,97239.87
2019-04-27T06:50:39.703Z,97237.92
2019-04-27T06:51:43.358Z,97233.65
2019-04-27T06:52:46.910Z,97231.51
2019-04-27T06:53:50.556Z,97231.89
2019-04-27T06:54:54.193Z,97230.72
2019-04-27T06:55:58.637Z,97232.46
2019-04-27T06:57:02.295Z,97230.34
2019-04-27T06:58:05.933Z,97225.06
2019-04-27T06:59:09.589Z,97224.25
2019-04-27T07:00:13.444Z,97222.25
2019-04-27T07:01:18.938Z,97219.04
2019-04-27T07:02:22.490Z,97217.61
2019-04-27T07:03:26.134Z,97214.77
2019-04-27T07:04:29.788Z,97216.23
2019-04-27T07:05:33.448Z,97213.23
2019-04-27T07:06:37.104Z,97211.01
2019-04-27T07:07:40.760Z,97212.13
2019-04-27T07:08:44.396Z,97210.52
2019-04-27T07:09:49.289Z,97206.58
2019-04-27T07:10:53.081Z,97202.91
2019-04-27T07:11:56.871Z,97205.80
2019-04-27T07:13:00.910Z,97202.78
2019-04-27T07:14:04.543Z,97198.84
2019-04-27T07:15:08.883Z,97202.20
2019-04-27T07:16:12.721Z,97193.28
2019-04-27T07:17:16.437Z,97198.69
2019-04-27T07:18:20.105Z,97190.42
2019-04-27T07:19:23.742Z,97185.93
2019-04-27T07:20:30.302Z,97197.79
2019-04-27T07:21:32.830Z,97189.23
2019-04-27T07:22:36.523Z,97190.33
2019-04-27T07:23:41.799Z,97183.63
2019-04-27T07:24:45.435Z,97181.31
2019-04-27T07:25:49.091Z,97181.03
2019-04-27T07:26:52.748Z,97184.33
2019-04-27T07:27:56.426Z,97183.73
2019-04-27T07:29:00.088Z,97185.93
2019-04-27T07:30:05.522Z,97178.55
2019-04-27T07:31:09.630Z,97176.35
2019-04-27T07:32:13.401Z,97182.19
2019-04-27T07:33:18.631Z,97175.59
2019-04-27T07:34:22.398Z,97177.99
2019-04-27T07:35:26.048Z,97177.68
2019-04-27T07:36:29.710Z,97173.19
2019-04-27T07:37:33.375Z,97170.12
2019-04-27T07:38:37.050Z,97171.00
2019-04-27T07:39:41.112Z,97172.87
2019-04-27T07:40:44.767Z,97172.88
2019-04-27T07:41:48.932Z,97172.92
2019-04-27T07:42:54.365Z,97167.76
2019-04-27T07:43:59.668Z,97169.13
2019-04-27T07:45:19.548Z,97167.61
2019-04-27T07:46:23.397Z,97170.34
2019-04-27T07:47:31.555Z,97161.59
2019-04-27T07:48:35.234Z,97162.69
2019-04-27T07:49:39.147Z,97160.14
2019-04-27T07:50:42.834Z,97158.76
2019-04-27T07:51:46.483Z,97156.42
2019-04-27T07:52:50.137Z,97157.66
2019-04-27T07:53:53.801Z,97155.29
2019-04-27T07:54:58.755Z,97160.19
2019-04-27T07:56:02.594Z,97158.55
2019-04-27T07:57:06.230Z,97158.63
2019-04-27T07:58:09.888Z,97160.88
2019-04-27T07:59:14.993Z,97155.27
2019-04-27T08:00:19.261Z,97159.59
2019-04-27T08:01:22.958Z,97154.27
2019-04-27T08:02:26.593Z,97158.68
2019-04-27T08:03:30.251Z,97161.37
2019-04-27T08:04:33.887Z,97154.12
2019-04-27T08:05:39.134Z,97158.55
2019-04-27T08:06:42.901Z,97152.34
2019-04-27T08:07:46.544Z,97152.73
2019-04-27T08:08:50.172Z,97152.04
2019-04-27T08:09:53.825Z,97152.09
2019-04-27T08:10:59.392Z,97159.84
2019-04-27T08:12:02.867Z,97151.61
2019-04-27T08:13:06.525Z,97150.17
2019-04-27T08:14:10.152Z,97151.25
2019-04-27T08:15:13.991Z,97147.66
2019-04-27T08:16:18.337Z,97149.30
2019-04-27T08:17:23.055Z,97144.88
2019-04-27T08:18:26.689Z,97144.04
2019-04-27T08:19:30.327Z,97146.86
2019-04-27T08:20:33.976Z,97145.15
2019-04-27T08:21:44.580Z,97146.56
2019-04-27T08:22:43.021Z,97143.49
2019-04-27T08:23:46.659Z,97138.55
2019-04-27T08:24:50.297Z,97138.05
2019-04-27T08:25:53.954Z,97136.91
2019-04-27T08:27:02.218Z,97136.36
2019-04-27T08:28:10.665Z,97141.70
2019-04-27T08:29:21.823Z,97134.97
2019-04-27T08:30:39.413Z,97139.97
2019-04-27T08:31:48.635Z,97136.03
2019-04-27T08:32:53.940Z,97130.63
2019-04-27T08:33:58.573Z,97132.61
2019-04-27T08:35:03.077Z,97132.02
2019-04-27T08:36:06.710Z,97129.19
2019-04-27T08:37:10.362Z,97126.92
2019-04-27T08:38:14.034Z,97125.09
2019-04-27T08:39:18.661Z,97122.94
2019-04-27T08:40:22.874Z,97122.13
2019-04-27T08:41:26.511Z,97120.55
2019-04-27T08:42:30.169Z,97121.23
2019-04-27T08:43:35.480Z,97116.68
2019-04-27T08:44:39.714Z,97114.48
2019-04-27T08:45:43.480Z,97108.22
2019-04-27T08:46:47.111Z,97111.94
2019-04-27T08:47:50.757Z,97108.97
2019-04-27T08:48:54.445Z,97119.11
2019-04-27T08:49:59.121Z,97113.11
2019-04-27T08:51:02.914Z,97115.58
2019-04-27T08:52:06.575Z,97109.23
2019-04-27T08:53:10.200Z,97112.70
2019-04-27T08:54:13.855Z,97110.52
2019-04-27T08:55:19.355Z,97105.59
2019-04-27T08:56:22.895Z,97096.98
2019-04-27T08:57:28.869Z,97108.59
2019-04-27T08:58:32.259Z,97097.58
2019-04-27T08:59:36.246Z,97100.22
2019-04-27T09:00:39.882Z,97098.03
2019-04-27T09:01:43.558Z,97096.17
2019-04-27T09:02:48.072Z,97094.00
2019-04-27T09:03:52.604Z,97092.42
2019-04-27T09:04:56.237Z,97087.83
2019-04-27T09:05:59.872Z,97088.75
2019-04-27T09:07:05.208Z,97085.56
2019-04-27T09:08:19.660Z,97083.95
2019-04-27T09:09:39.814Z,97087.52
2019-04-27T09:10:53.941Z,97083.75
2019-04-27T09:12:15.344Z,97077.79
2019-04-27T09:13:20.637Z,97083.26
2019-04-27T09:14:25.962Z,97082.91
2019-04-27T09:15:39.031Z,97075.19
2019-04-27T09:16:57.295Z,97075.23
2019-04-27T09:17:58.753Z,97076.69
2019-04-27T09:19:03.918Z,97072.59
2019-04-27T09:20:09.745Z,97073.80
2019-04-27T09:21:13.383Z,97063.90
2019-04-27T09:22:20.550Z,97064.22
2019-04-27T09:23:22.407Z,97068.03
2019-04-27T09:24:26.161Z,97070.36
2019-04-27T09:25:32.385Z,97066.22
2019-04-27T09:26:36.015Z,97062.08
2019-04-27T09:27:39.674Z,97058.30
2019-04-27T09:28:43.321Z,97054.84
2019-04-27T09:29:46.952Z,97057.77
2019-04-27T09:30:50.649Z,97040.08
2019-04-27T09:31:54.286Z,97048.52
2019-04-27T09:32:57.911Z,97044.73
2019-04-27T09:34:01.569Z,97030.31
2019-04-27T09:35:05.902Z,97044.05
2019-04-27T09:36:10.703Z,97032.64
2019-04-27T09:37:15.970Z,97028.90
2019-04-27T09:38:19.666Z,97035.92
2019-04-27T09:39:23.325Z,97031.02
2019-04-27T09:40:27.324Z,97030.05
2019-04-27T09:41:31.000Z,97023.91
2019-04-27T09:42:38.139Z,97029.37
2019-04-27T09:43:40.030Z,97015.77
2019-04-27T09:44:43.665Z,97018.06
2019-04-27T09:45:47.638Z,97024.75
2019-04-27T09:46:53.396Z,97029.02
2019-04-27T09:47:57.055Z,97021.36
2019-04-27T09:49:00.708Z,97027.02
2019-04-27T09:50:05.790Z,97018.34
2019-04-27T09:51:09.881Z,97022.31
2019-04-27T09:52:23.590Z,97023.84
2019-04-27T09:53:19.030Z,97024.72
2019-04-27T09:54:23.774Z,97018.77
2019-04-27T09:55:27.506Z,97016.35
2019-04-27T09:56:31.139Z,97018.25
2019-04-27T09:57:37.845Z,97021.66
2019-04-27T09:58:41.501Z,97014.00
2019-04-27T09:59:46.042Z,97012.92
2019-04-27T10:00:49.823Z,97011.64
2019-04-27T10:01:53.487Z,97005.80
2019-04-27T10:02:59.772Z,97006.01
2019-04-27T10:04:04.947Z,97005.14
2019-04-27T10:05:08.900Z,97011.22
2019-04-27T10:06:12.810Z,97003.70
2019-04-27T10:07:16.659Z,96994.38
2019-04-27T10:08:20.297Z,96990.66
2019-04-27T10:09:24.154Z,96996.83
2019-04-27T10:10:27.890Z,96995.42
2019-04-27T10:11:31.517Z,96993.88
2019-04-27T10:12:36.840Z,96992.84
2019-04-27T10:13:40.657Z,96997.13
2019-04-27T10:14:45.448Z,96992.30
2019-04-27T10:15:49.989Z,96993.05
2019-04-27T10:16:53.645Z,96991.25
2019-04-27T10:17:57.706Z,96992.34
2019-04-27T10:19:01.705Z,96994.39
2019-04-27T10:20:08.406Z,97002.20
2019-04-27T10:21:11.990Z,96998.56
2019-04-27T10:22:15.999Z,96997.20
2019-04-27T10:23:19.752Z,96990.11
2019-04-27T10:24:23.439Z,96983.63
2019-04-27T10:25:28.568Z,96983.98
2019-04-27T10:26:32.193Z,96983.70
2019-04-27T10:27:35.962Z,96982.33
2019-04-27T10:28:39.593Z,96981.80
2019-04-27T10:29:43.320Z,96973.98
2019-04-27T10:30:46.949Z,96977.44
2019-04-27T10:31:50.618Z,96977.44
2019-04-27T10:32:54.578Z,96978.45
2019-04-27T10:33:58.207Z,96972.67
2019-04-27T10:35:01.910Z,96966.27
2019-04-27T10:36:06.486Z,96963.19
2019-04-27T10:37:10.376Z,96955.64
2019-04-27T10:38:15.390Z,96962.97
2019-04-27T10:39:19.403Z,96959.19
2019-04-27T10:40:23.065Z,96959.77
2019-04-27T10:41:26.713Z,96951.52
2019-04-27T10:42:30.576Z,96953.11
2019-04-27T10:43:34.210Z,96958.00
2019-04-27T10:44:37.864Z,96947.52
2019-04-27T10:45:41.558Z,96950.72
2019-04-27T10:46:45.269Z,96939.46
2019-04-27T10:47:49.647Z,96940.25
2019-04-27T10:48:56.387Z,96934.27
2019-04-27T10:50:00.032Z,96936.22
2019-04-27T10:51:07.387Z,96935.06
2019-04-27T10:52:11.106Z,96928.23
2019-04-27T10:53:16.477Z,96940.63
2019-04-27T10:54:20.162Z,96934.85
2019-04-27T10:55:23.780Z,96929.15
2019-04-27T10:56:27.455Z,96925.58
2019-04-27T10:57:31.109Z,96920.23
2019-04-27T10:58:35.549Z,96912.59
2019-04-27T10:59:39.356Z,96908.47
2019-04-27T11:00:54.518Z,96912.72
2019-04-27T11:01:58.176Z,96907.20
2019-04-27T11:03:01.822Z,96905.88
2019-04-27T11:04:19.793Z,96900.94
2019-04-27T11:05:46.025Z,96906.04
2019-04-27T11:06:54.471Z,96901.08
2019-04-27T11:08:00.933Z,96897.89
2019-04-27T11:09:07.477Z,96905.73
2019-04-27T11:10:12.042Z,96901.00
2019-04-27T11:11:15.685Z,96896.14
2019-04-27T11:12:19.327Z,96883.43
2019-04-27T11:13:23.011Z,96885.73
2019-04-27T11:14:26.651Z,96891.30
2019-04-27T11:15:30.401Z,96887.83
2019-04-27T11:16:35.933Z,96891.23
2019-04-27T11:17:39.411Z,96884.16
2019-04-27T11:18:43.098Z,96882.94
2019-04-27T11:19:46.742Z,96887.40
2019-04-27T11:20:50.396Z,96881.98
2019-04-27T11:21:54.036Z,96871.38
2019-04-27T11:23:07.010Z,96867.19
2019-04-27T11:24:03.089Z,96879.16
2019-04-27T11:25:09.961Z,96873.09
2019-04-27T11:26:13.605Z,96873.08
2019-04-27T11:27:17.247Z,96877.74
2019-04-27T11:28:20.900Z,96869.42
2019-04-27T11:29:25.663Z,96870.47
2019-04-27T11:30:30.019Z,96861.27
2019-04-27T11:31:33.659Z,96859.67
2019-04-27T11:32:37.456Z,96855.26
2019-04-27T11:33:41.190Z,96855.44
2019-04-27T11:35:01.574Z,96856.34
2019-04-27T11:36:26.227Z,96849.35
2019-04-27T11:37:31.530Z,96843.81
2019-04-27T11:38:36.573Z,96851.49
2019-04-27T11:39:40.273Z,96856.44
2019-04-27T11:40:43.971Z,96850.70
2019-04-27T11:41:47.708Z,96844.73
2019-04-27T11:42:51.363Z,96845.45
2019-04-27T11:43:56.569Z,96843.52
2019-04-27T11:45:00.419Z,96848.52
2019-04-27T11:46:06.052Z,96852.63
2019-04-27T11:47:09.454Z,96852.72
2019-04-27T11:48:13.094Z,96851.33
2019-04-27T11:49:16.756Z,96850.02
2019-04-27T11:50:20.512Z,96846.08
2019-04-27T11:51:24.306Z,96838.66
2019-04-27T11:52:28.282Z,96834.25
2019-04-27T11:53:32.015Z,96829.27
2019-04-27T11:54:36.013Z,96828.11
2019-04-27T11:55:39.792Z,96822.78
2019-04-27T11:56:43.577Z,96826.28
2019-04-27T11:57:47.201Z,96828.92
2019-04-27T11:58:50.828Z,96820.16
2019-04-27T11:59:56.318Z,96823.11
2019-04-27T12:01:00.555Z,96827.77
2019-04-27T12:02:04.389Z,96816.98
2019-04-27T12:03:08.020Z,96816.98
2019-04-27T12:04:11.709Z,96808.03
2019-04-27T12:05:16.133Z,96808.79
2019-04-27T12:06:19.863Z,96814.25
2019-04-27T12:07:23.563Z,96805.59
2019-04-27T12:08:27.198Z,96800.86
2019-04-27T12:09:30.830Z,96794.84
2019-04-27T12:10:36.215Z,96791.77
2019-04-27T12:11:41.594Z,96788.18
2019-04-27T12:12:46.382Z,96789.95
2019-04-27T12:13:50.107Z,96785.91
2019-04-27T12:14:55.923Z,96793.33
2019-04-27T12:15:59.509Z,96794.98
2019-04-27T12:17:03.172Z,96788.17
2019-04-27T12:18:08.916Z,96791.63
2019-04-27T12:19:12.854Z,96787.24
2019-04-27T12:20:17.941Z,96786.86
2019-04-27T12:21:21.808Z,96779.55
2019-04-27T12:22:25.464Z,96779.02
2019-04-27T12:23:35.968Z,96773.00
2019-04-27T12:24:35.613Z,96781.90
2019-04-27T12:25:39.361Z,96768.89
2019-04-27T12:27:01.146Z,96763.44
2019-04-27T12:28:22.520Z,96768.22
2019-04-27T12:29:27.908Z,96772.03
2019-04-27T12:30:49.453Z,96764.55
2019-04-27T12:31:53.207Z,96771.78
2019-04-27T12:32:56.885Z,96769.54
2019-04-27T12:34:00.531Z,96760.23
2019-04-27T12:35:06.701Z,96770.25
2019-04-27T12:36:10.645Z,96756.67
2019-04-27T12:37:15.740Z,96767.22
2019-04-27T12:38:19.793Z,96762.83
2019-04-27T12:39:23.468Z,96762.27
2019-04-27T12:40:27.328Z,96753.72
2019-04-27T12:41:31.095Z,96746.81
2019-04-27T12:42:36.374Z,96752.11
2019-04-27T12:43:40.445Z,96752.36
2019-04-27T12:44:44.831Z,96750.41
2019-04-27T12:45:48.633Z,96744.93
2019-04-27T12:46:52.461Z,96745.62
2019-04-27T12:47:56.712Z,96739.44